sensor_id;sensor_type;location;lat;lon;timestamp;P1;durP1;ratioP1;P2;durP2;ratioP2
55647;SDS011;45266;48.756;9.246;2023-06-10T00:00:01;6.22;;;5.63;;
55647;SDS011;45266;48.756;9.246;2023-06-10T00:01:06;6.72;;;6.13;;
55647;SDS011;45266;48.756;9.246;2023-06-10T00:02:08;7.20;;;6.60;;
55647;SDS011;45266;48.756;9.246;2023-06-10T00:03:10;6.88;;;6.10;;
55647;SDS011;45266;48.756;9.246;2023-06-10T00:04:14;7.60;;;6.90;;
55647;SDS011;45266;48.756;9.246;2023-06-10T00:05:18;7.45;;;6.75;;
55647;SDS011;45266;48.756;9.246;2023-06-10T00:06:22;8.27;;;7.47;;
55647;SDS011;45266;48.756;9.246;2023-06-10T00:07:25;7.93;;;6.72;;
55647;SDS011;45266;48.756;9.246;2023-06-10T00:08:27;7.65;;;6.85;;
55647;SDS011;45266;48.756;9.246;2023-06-10T00:09:32;8.43;;;6.55;;
55647;SDS011;45266;48.756;9.246;2023-06-10T00:10:34;7.15;;;6.55;;
55647;SDS011;45266;48.756;9.246;2023-06-10T00:11:37;7.20;;;6.50;;
55647;SDS011;45266;48.756;9.246;2023-06-10T00:12:39;7.22;;;6.53;;
55647;SDS011;45266;48.756;9.246;2023-06-10T00:13:41;7.00;;;6.40;;
55647;SDS011;45266;48.756;9.246;2023-06-10T00:14:43;8.07;;;6.78;;
55647;SDS011;45266;48.756;9.246;2023-06-10T00:15:45;9.00;;;6.53;;
55647;SDS011;45266;48.756;9.246;2023-06-10T00:16:46;6.93;;;6.32;;
55647;SDS011;45266;48.756;9.246;2023-06-10T00:17:48;8.77;;;6.85;;
55647;SDS011;45266;48.756;9.246;2023-06-10T00:18:50;6.85;;;6.25;;
55647;SDS011;45266;48.756;9.246;2023-06-10T00:19:52;7.22;;;6.57;;
55647;SDS011;45266;48.756;9.246;2023-06-10T00:20:54;7.40;;;6.60;;
55647;SDS011;45266;48.756;9.246;2023-06-10T00:21:56;7.03;;;6.43;;
55647;SDS011;45266;48.756;9.246;2023-06-10T00:22:59;7.32;;;6.63;;
55647;SDS011;45266;48.756;9.246;2023-06-10T00:24:06;8.18;;;7.40;;
55647;SDS011;45266;48.756;9.246;2023-06-10T00:25:14;7.53;;;6.82;;
55647;SDS011;45266;48.756;9.246;2023-06-10T00:26:16;7.28;;;6.57;;
55647;SDS011;45266;48.756;9.246;2023-06-10T00:27:17;7.03;;;6.32;;
55647;SDS011;45266;48.756;9.246;2023-06-10T00:28:19;7.78;;;6.90;;
55647;SDS011;45266;48.756;9.246;2023-06-10T00:29:21;8.35;;;6.65;;
55647;SDS011;45266;48.756;9.246;2023-06-10T00:30:23;6.90;;;6.30;;
55647;SDS011;45266;48.756;9.246;2023-06-10T00:31:25;7.30;;;6.60;;
55647;SDS011;45266;48.756;9.246;2023-06-10T00:32:27;8.25;;;6.72;;
55647;SDS011;45266;48.756;9.246;2023-06-10T00:33:29;7.03;;;6.32;;
55647;SDS011;45266;48.756;9.246;2023-06-10T00:34:32;7.55;;;6.85;;
55647;SDS011;45266;48.756;9.246;2023-06-10T00:35:34;7.88;;;7.18;;
55647;SDS011;45266;48.756;9.246;2023-06-10T00:36:35;7.38;;;6.68;;
55647;SDS011;45266;48.756;9.246;2023-06-10T00:37:37;7.65;;;6.95;;
55647;SDS011;45266;48.756;9.246;2023-06-10T00:38:39;7.30;;;6.70;;
55647;SDS011;45266;48.756;9.246;2023-06-10T00:39:44;7.70;;;7.00;;
55647;SDS011;45266;48.756;9.246;2023-06-10T00:40:46;7.38;;;6.75;;
55647;SDS011;45266;48.756;9.246;2023-06-10T00:41:48;8.20;;;6.75;;
55647;SDS011;45266;48.756;9.246;2023-06-10T00:42:50;7.45;;;6.70;;
55647;SDS011;45266;48.756;9.246;2023-06-10T00:43:52;7.88;;;7.07;;
55647;SDS011;45266;48.756;9.246;2023-06-10T00:44:54;8.38;;;6.85;;
55647;SDS011;45266;48.756;9.246;2023-06-10T00:45:56;8.27;;;7.47;;
55647;SDS011;45266;48.756;9.246;2023-06-10T00:46:58;8.70;;;7.32;;
55647;SDS011;45266;48.756;9.246;2023-06-10T00:48:00;7.50;;;6.80;;
55647;SDS011;45266;48.756;9.246;2023-06-10T00:49:02;10.25;;;6.88;;
55647;SDS011;45266;48.756;9.246;2023-06-10T00:50:05;8.30;;;7.50;;
55647;SDS011;45266;48.756;9.246;2023-06-10T00:51:08;8.52;;;7.68;;
55647;SDS011;45266;48.756;9.246;2023-06-10T00:52:10;8.05;;;7.22;;
55647;SDS011;45266;48.756;9.246;2023-06-10T00:53:13;7.50;;;6.80;;
55647;SDS011;45266;48.756;9.246;2023-06-10T00:54:15;8.02;;;7.22;;
55647;SDS011;45266;48.756;9.246;2023-06-10T00:55:17;7.68;;;6.97;;
55647;SDS011;45266;48.756;9.246;2023-06-10T00:56:19;7.68;;;6.97;;
55647;SDS011;45266;48.756;9.246;2023-06-10T00:57:22;7.88;;;7.07;;
55647;SDS011;45266;48.756;9.246;2023-06-10T00:58:24;7.47;;;6.78;;
55647;SDS011;45266;48.756;9.246;2023-06-10T00:59:28;8.05;;;7.28;;
55647;SDS011;45266;48.756;9.246;2023-06-10T01:00:31;8.48;;;7.28;;
55647;SDS011;45266;48.756;9.246;2023-06-10T01:01:32;8.57;;;7.78;;
55647;SDS011;45266;48.756;9.246;2023-06-10T01:02:35;7.90;;;7.13;;
55647;SDS011;45266;48.756;9.246;2023-06-10T01:03:37;8.95;;;7.35;;
55647;SDS011;45266;48.756;9.246;2023-06-10T01:04:41;7.88;;;7.05;;
55647;SDS011;45266;48.756;9.246;2023-06-10T01:05:42;8.63;;;7.75;;
55647;SDS011;45266;48.756;9.246;2023-06-10T01:08:19;8.38;;;7.60;;
55647;SDS011;45266;48.756;9.246;2023-06-10T01:09:58;8.55;;;7.03;;
55647;SDS011;45266;48.756;9.246;2023-06-10T01:11:01;9.02;;;7.65;;
55647;SDS011;45266;48.756;9.246;2023-06-10T01:12:24;9.02;;;7.18;;
55647;SDS011;45266;48.756;9.246;2023-06-10T01:13:42;7.80;;;7.00;;
55647;SDS011;45266;48.756;9.246;2023-06-10T01:14:46;8.18;;;7.38;;
55647;SDS011;45266;48.756;9.246;2023-06-10T01:15:50;7.68;;;6.88;;
55647;SDS011;45266;48.756;9.246;2023-06-10T01:16:53;7.88;;;7.18;;
55647;SDS011;45266;48.756;9.246;2023-06-10T01:19:10;8.07;;;7.35;;
55647;SDS011;45266;48.756;9.246;2023-06-10T01:20:14;7.95;;;7.25;;
55647;SDS011;45266;48.756;9.246;2023-06-10T01:21:22;8.30;;;6.93;;
55647;SDS011;45266;48.756;9.246;2023-06-10T01:22:28;7.90;;;7.20;;
55647;SDS011;45266;48.756;9.246;2023-06-10T01:23:30;7.60;;;6.78;;
55647;SDS011;45266;48.756;9.246;2023-06-10T01:24:32;8.02;;;7.28;;
55647;SDS011;45266;48.756;9.246;2023-06-10T01:25:44;7.57;;;6.93;;
55647;SDS011;45266;48.756;9.246;2023-06-10T01:26:49;8.55;;;7.65;;
55647;SDS011;45266;48.756;9.246;2023-06-10T01:27:52;7.85;;;7.15;;
55647;SDS011;45266;48.756;9.246;2023-06-10T01:29:07;8.25;;;7.38;;
55647;SDS011;45266;48.756;9.246;2023-06-10T01:30:18;8.05;;;7.25;;
55647;SDS011;45266;48.756;9.246;2023-06-10T01:32:59;8.32;;;6.80;;
55647;SDS011;45266;48.756;9.246;2023-06-10T01:34:03;7.35;;;6.75;;
55647;SDS011;45266;48.756;9.246;2023-06-10T01:35:09;8.27;;;7.47;;
55647;SDS011;45266;48.756;9.246;2023-06-10T01:36:13;7.32;;;6.72;;
55647;SDS011;45266;48.756;9.246;2023-06-10T01:37:18;7.47;;;6.80;;
55647;SDS011;45266;48.756;9.246;2023-06-10T01:38:23;7.38;;;6.68;;
55647;SDS011;45266;48.756;9.246;2023-06-10T01:39:27;8.05;;;7.30;;
55647;SDS011;45266;48.756;9.246;2023-06-10T01:40:29;9.30;;;7.15;;
55647;SDS011;45266;48.756;9.246;2023-06-10T01:41:33;8.43;;;7.07;;
55647;SDS011;45266;48.756;9.246;2023-06-10T01:42:36;7.80;;;7.10;;
55647;SDS011;45266;48.756;9.246;2023-06-10T01:43:39;7.10;;;6.50;;
55647;SDS011;45266;48.756;9.246;2023-06-10T01:44:41;8.75;;;7.88;;
55647;SDS011;45266;48.756;9.246;2023-06-10T01:45:43;7.45;;;6.75;;
55647;SDS011;45266;48.756;9.246;2023-06-10T01:46:45;8.38;;;7.65;;
55647;SDS011;45266;48.756;9.246;2023-06-10T01:47:47;8.90;;;7.40;;
55647;SDS011;45266;48.756;9.246;2023-06-10T01:48:49;7.68;;;6.97;;
55647;SDS011;45266;48.756;9.246;2023-06-10T01:49:51;7.60;;;6.93;;
55647;SDS011;45266;48.756;9.246;2023-06-10T01:50:53;7.95;;;7.18;;
55647;SDS011;45266;48.756;9.246;2023-06-10T01:51:57;8.00;;;7.20;;
55647;SDS011;45266;48.756;9.246;2023-06-10T01:52:59;7.95;;;7.15;;
55647;SDS011;45266;48.756;9.246;2023-06-10T01:54:01;7.97;;;7.25;;
55647;SDS011;45266;48.756;9.246;2023-06-10T01:55:04;8.15;;;7.40;;
55647;SDS011;45266;48.756;9.246;2023-06-10T01:56:06;7.70;;;7.00;;
55647;SDS011;45266;48.756;9.246;2023-06-10T01:57:08;7.47;;;6.78;;
55647;SDS011;45266;48.756;9.246;2023-06-10T01:58:10;7.95;;;7.20;;
55647;SDS011;45266;48.756;9.246;2023-06-10T01:59:11;7.93;;;7.13;;
55647;SDS011;45266;48.756;9.246;2023-06-10T02:00:13;7.75;;;7.05;;
55647;SDS011;45266;48.756;9.246;2023-06-10T02:01:16;7.82;;;7.13;;
55647;SDS011;45266;48.756;9.246;2023-06-10T02:02:18;10.18;;;7.55;;
55647;SDS011;45266;48.756;9.246;2023-06-10T02:03:20;7.57;;;6.95;;
55647;SDS011;45266;48.756;9.246;2023-06-10T02:04:21;8.25;;;7.50;;
55647;SDS011;45266;48.756;9.246;2023-06-10T02:05:23;7.30;;;6.60;;
55647;SDS011;45266;48.756;9.246;2023-06-10T02:06:26;7.57;;;6.88;;
55647;SDS011;45266;48.756;9.246;2023-06-10T02:07:27;8.02;;;7.22;;
55647;SDS011;45266;48.756;9.246;2023-06-10T02:08:29;7.97;;;7.28;;
55647;SDS011;45266;48.756;9.246;2023-06-10T02:09:31;8.70;;;7.32;;
55647;SDS011;45266;48.756;9.246;2023-06-10T02:10:36;8.10;;;7.35;;
55647;SDS011;45266;48.756;9.246;2023-06-10T02:11:38;8.00;;;7.25;;
55647;SDS011;45266;48.756;9.246;2023-06-10T02:12:39;8.00;;;7.07;;
55647;SDS011;45266;48.756;9.246;2023-06-10T02:13:41;7.88;;;7.00;;
55647;SDS011;45266;48.756;9.246;2023-06-10T02:14:43;7.53;;;6.93;;
55647;SDS011;45266;48.756;9.246;2023-06-10T02:15:45;8.23;;;7.43;;
55647;SDS011;45266;48.756;9.246;2023-06-10T02:16:47;8.10;;;7.40;;
55647;SDS011;45266;48.756;9.246;2023-06-10T02:17:49;7.88;;;7.18;;
55647;SDS011;45266;48.756;9.246;2023-06-10T02:18:52;8.40;;;7.50;;
55647;SDS011;45266;48.756;9.246;2023-06-10T02:19:54;8.10;;;7.40;;
55647;SDS011;45266;48.756;9.246;2023-06-10T02:20:55;8.35;;;7.47;;
55647;SDS011;45266;48.756;9.246;2023-06-10T02:21:57;8.25;;;7.45;;
55647;SDS011;45266;48.756;9.246;2023-06-10T02:22:59;8.73;;;7.28;;
55647;SDS011;45266;48.756;9.246;2023-06-10T02:24:01;8.48;;;7.72;;
55647;SDS011;45266;48.756;9.246;2023-06-10T02:25:03;7.95;;;7.15;;
55647;SDS011;45266;48.756;9.246;2023-06-10T02:26:06;8.50;;;7.65;;
55647;SDS011;45266;48.756;9.246;2023-06-10T02:27:08;8.23;;;7.43;;
55647;SDS011;45266;48.756;9.246;2023-06-10T02:28:10;9.07;;;7.07;;
55647;SDS011;45266;48.756;9.246;2023-06-10T02:29:12;7.88;;;7.18;;
55647;SDS011;45266;48.756;9.246;2023-06-10T02:30:14;8.50;;;7.70;;
55647;SDS011;45266;48.756;9.246;2023-06-10T02:31:17;8.18;;;7.40;;
55647;SDS011;45266;48.756;9.246;2023-06-10T02:32:19;8.70;;;7.95;;
55647;SDS011;45266;48.756;9.246;2023-06-10T02:33:21;8.02;;;7.32;;
55647;SDS011;45266;48.756;9.246;2023-06-10T02:34:24;8.77;;;7.97;;
55647;SDS011;45266;48.756;9.246;2023-06-10T02:35:26;7.90;;;7.10;;
55647;SDS011;45266;48.756;9.246;2023-06-10T02:36:28;7.95;;;7.25;;
55647;SDS011;45266;48.756;9.246;2023-06-10T02:37:30;7.50;;;6.82;;
55647;SDS011;45266;48.756;9.246;2023-06-10T02:38:31;8.02;;;7.30;;
55647;SDS011;45266;48.756;9.246;2023-06-10T02:39:33;7.95;;;7.20;;
55647;SDS011;45266;48.756;9.246;2023-06-10T02:40:35;8.13;;;7.43;;
55647;SDS011;45266;48.756;9.246;2023-06-10T02:41:37;8.10;;;7.30;;
55647;SDS011;45266;48.756;9.246;2023-06-10T02:42:39;8.30;;;7.35;;
55647;SDS011;45266;48.756;9.246;2023-06-10T02:43:41;7.50;;;6.70;;
55647;SDS011;45266;48.756;9.246;2023-06-10T02:44:43;7.68;;;7.07;;
55647;SDS011;45266;48.756;9.246;2023-06-10T02:45:45;8.38;;;7.50;;
55647;SDS011;45266;48.756;9.246;2023-06-10T02:46:47;7.93;;;7.22;;
55647;SDS011;45266;48.756;9.246;2023-06-10T02:47:49;8.10;;;7.28;;
55647;SDS011;45266;48.756;9.246;2023-06-10T02:48:51;8.13;;;7.35;;
55647;SDS011;45266;48.756;9.246;2023-06-10T02:49:53;7.68;;;6.90;;
55647;SDS011;45266;48.756;9.246;2023-06-10T02:50:55;7.93;;;7.13;;
55647;SDS011;45266;48.756;9.246;2023-06-10T02:51:57;7.80;;;7.10;;
55647;SDS011;45266;48.756;9.246;2023-06-10T02:53:01;7.78;;;7.03;;
55647;SDS011;45266;48.756;9.246;2023-06-10T02:54:02;7.70;;;7.00;;
55647;SDS011;45266;48.756;9.246;2023-06-10T02:55:04;8.25;;;7.35;;
55647;SDS011;45266;48.756;9.246;2023-06-10T02:56:07;8.02;;;7.22;;
55647;SDS011;45266;48.756;9.246;2023-06-10T02:57:09;7.72;;;7.03;;
55647;SDS011;45266;48.756;9.246;2023-06-10T02:58:11;7.95;;;7.25;;
55647;SDS011;45266;48.756;9.246;2023-06-10T02:59:14;7.75;;;7.05;;
55647;SDS011;45266;48.756;9.246;2023-06-10T03:00:16;7.07;;;6.38;;
55647;SDS011;45266;48.756;9.246;2023-06-10T03:01:21;8.13;;;7.32;;
55647;SDS011;45266;48.756;9.246;2023-06-10T03:02:23;7.53;;;6.90;;
55647;SDS011;45266;48.756;9.246;2023-06-10T03:03:29;7.78;;;7.03;;
55647;SDS011;45266;48.756;9.246;2023-06-10T03:04:31;8.30;;;7.43;;
55647;SDS011;45266;48.756;9.246;2023-06-10T03:05:34;7.63;;;6.93;;
55647;SDS011;45266;48.756;9.246;2023-06-10T03:06:35;7.53;;;6.82;;
55647;SDS011;45266;48.756;9.246;2023-06-10T03:07:39;7.95;;;7.25;;
55647;SDS011;45266;48.756;9.246;2023-06-10T03:08:42;7.53;;;6.82;;
55647;SDS011;45266;48.756;9.246;2023-06-10T03:09:44;7.50;;;6.70;;
55647;SDS011;45266;48.756;9.246;2023-06-10T03:10:46;8.40;;;7.60;;
55647;SDS011;45266;48.756;9.246;2023-06-10T03:11:47;8.00;;;7.20;;
55647;SDS011;45266;48.756;9.246;2023-06-10T03:12:49;7.10;;;6.40;;
55647;SDS011;45266;48.756;9.246;2023-06-10T03:13:51;7.88;;;6.90;;
55647;SDS011;45266;48.756;9.246;2023-06-10T03:14:54;7.90;;;7.20;;
55647;SDS011;45266;48.756;9.246;2023-06-10T03:15:56;8.27;;;7.47;;
55647;SDS011;45266;48.756;9.246;2023-06-10T03:16:58;7.88;;;7.15;;
55647;SDS011;45266;48.756;9.246;2023-06-10T03:18:00;8.30;;;7.00;;
55647;SDS011;45266;48.756;9.246;2023-06-10T03:19:03;7.78;;;7.07;;
55647;SDS011;45266;48.756;9.246;2023-06-10T03:20:06;7.60;;;6.90;;
55647;SDS011;45266;48.756;9.246;2023-06-10T03:21:11;7.75;;;7.05;;
55647;SDS011;45266;48.756;9.246;2023-06-10T03:22:14;8.40;;;7.20;;
55647;SDS011;45266;48.756;9.246;2023-06-10T03:23:16;8.30;;;7.50;;
55647;SDS011;45266;48.756;9.246;2023-06-10T03:24:18;7.43;;;6.72;;
55647;SDS011;45266;48.756;9.246;2023-06-10T03:25:20;7.30;;;6.68;;
55647;SDS011;45266;48.756;9.246;2023-06-10T03:26:22;7.43;;;6.72;;
55647;SDS011;45266;48.756;9.246;2023-06-10T03:27:24;7.65;;;6.95;;
55647;SDS011;45266;48.756;9.246;2023-06-10T03:28:28;7.55;;;6.80;;
55647;SDS011;45266;48.756;9.246;2023-06-10T03:29:30;7.65;;;6.85;;
55647;SDS011;45266;48.756;9.246;2023-06-10T03:30:32;8.13;;;7.43;;
55647;SDS011;45266;48.756;9.246;2023-06-10T03:31:34;8.20;;;7.50;;
55647;SDS011;45266;48.756;9.246;2023-06-10T03:32:38;7.57;;;6.82;;
55647;SDS011;45266;48.756;9.246;2023-06-10T03:33:39;7.70;;;7.00;;
55647;SDS011;45266;48.756;9.246;2023-06-10T03:34:43;8.00;;;6.97;;
55647;SDS011;45266;48.756;9.246;2023-06-10T03:35:49;7.97;;;6.55;;
55647;SDS011;45266;48.756;9.246;2023-06-10T03:36:51;7.85;;;7.15;;
55647;SDS011;45266;48.756;9.246;2023-06-10T03:37:53;8.07;;;7.38;;
55647;SDS011;45266;48.756;9.246;2023-06-10T03:38:55;7.80;;;7.10;;
55647;SDS011;45266;48.756;9.246;2023-06-10T03:39:58;9.10;;;7.15;;
55647;SDS011;45266;48.756;9.246;2023-06-10T03:41:00;8.00;;;7.20;;
55647;SDS011;45266;48.756;9.246;2023-06-10T03:42:01;7.45;;;6.75;;
55647;SDS011;45266;48.756;9.246;2023-06-10T03:43:03;7.18;;;6.32;;
55647;SDS011;45266;48.756;9.246;2023-06-10T03:44:06;7.88;;;7.07;;
55647;SDS011;45266;48.756;9.246;2023-06-10T03:45:08;8.35;;;7.55;;
55647;SDS011;45266;48.756;9.246;2023-06-10T03:46:11;7.60;;;6.90;;
55647;SDS011;45266;48.756;9.246;2023-06-10T03:47:12;8.38;;;6.90;;
55647;SDS011;45266;48.756;9.246;2023-06-10T03:48:15;7.10;;;6.50;;
55647;SDS011;45266;48.756;9.246;2023-06-10T03:49:17;7.72;;;6.85;;
55647;SDS011;45266;48.756;9.246;2023-06-10T03:50:19;7.10;;;6.40;;
55647;SDS011;45266;48.756;9.246;2023-06-10T03:51:21;7.60;;;6.45;;
55647;SDS011;45266;48.756;9.246;2023-06-10T03:52:24;8.00;;;7.13;;
55647;SDS011;45266;48.756;9.246;2023-06-10T03:53:25;10.35;;;6.85;;
55647;SDS011;45266;48.756;9.246;2023-06-10T03:54:27;7.05;;;6.35;;
55647;SDS011;45266;48.756;9.246;2023-06-10T03:55:29;7.40;;;6.63;;
55647;SDS011;45266;48.756;9.246;2023-06-10T03:56:32;7.25;;;6.50;;
55647;SDS011;45266;48.756;9.246;2023-06-10T03:57:34;7.55;;;6.85;;
55647;SDS011;45266;48.756;9.246;2023-06-10T03:58:36;7.20;;;6.50;;
55647;SDS011;45266;48.756;9.246;2023-06-10T03:59:38;7.40;;;6.70;;
55647;SDS011;45266;48.756;9.246;2023-06-10T04:00:40;8.23;;;6.60;;
55647;SDS011;45266;48.756;9.246;2023-06-10T04:01:44;7.70;;;7.00;;
55647;SDS011;45266;48.756;9.246;2023-06-10T04:02:46;7.50;;;6.80;;
55647;SDS011;45266;48.756;9.246;2023-06-10T04:03:50;7.32;;;6.60;;
55647;SDS011;45266;48.756;9.246;2023-06-10T04:04:55;7.75;;;7.07;;
55647;SDS011;45266;48.756;9.246;2023-06-10T04:05:57;7.03;;;6.22;;
55647;SDS011;45266;48.756;9.246;2023-06-10T04:07:00;8.45;;;6.40;;
55647;SDS011;45266;48.756;9.246;2023-06-10T04:08:02;7.13;;;6.50;;
55647;SDS011;45266;48.756;9.246;2023-06-10T04:09:04;7.40;;;6.70;;
55647;SDS011;45266;48.756;9.246;2023-06-10T04:10:06;7.40;;;6.70;;
55647;SDS011;45266;48.756;9.246;2023-06-10T04:11:09;7.00;;;6.30;;
55647;SDS011;45266;48.756;9.246;2023-06-10T04:12:11;7.35;;;6.65;;
55647;SDS011;45266;48.756;9.246;2023-06-10T04:13:12;6.95;;;6.35;;
55647;SDS011;45266;48.756;9.246;2023-06-10T04:14:15;7.20;;;6.50;;
55647;SDS011;45266;48.756;9.246;2023-06-10T04:15:18;6.95;;;6.35;;
55647;SDS011;45266;48.756;9.246;2023-06-10T04:16:20;6.95;;;6.30;;
55647;SDS011;45266;48.756;9.246;2023-06-10T04:17:22;7.00;;;6.40;;
55647;SDS011;45266;48.756;9.246;2023-06-10T04:18:24;7.20;;;6.55;;
55647;SDS011;45266;48.756;9.246;2023-06-10T04:19:26;6.68;;;5.97;;
55647;SDS011;45266;48.756;9.246;2023-06-10T04:20:29;6.85;;;6.25;;
55647;SDS011;45266;48.756;9.246;2023-06-10T04:21:31;7.55;;;6.57;;
55647;SDS011;45266;48.756;9.246;2023-06-10T04:22:34;7.20;;;6.57;;
55647;SDS011;45266;48.756;9.246;2023-06-10T04:23:36;7.60;;;6.90;;
55647;SDS011;45266;48.756;9.246;2023-06-10T04:24:39;7.15;;;6.43;;
55647;SDS011;45266;48.756;9.246;2023-06-10T04:25:40;6.85;;;6.15;;
55647;SDS011;45266;48.756;9.246;2023-06-10T04:26:42;7.55;;;6.53;;
55647;SDS011;45266;48.756;9.246;2023-06-10T04:27:44;7.28;;;6.57;;
55647;SDS011;45266;48.756;9.246;2023-06-10T04:28:46;7.40;;;6.70;;
55647;SDS011;45266;48.756;9.246;2023-06-10T04:29:48;7.78;;;6.70;;
55647;SDS011;45266;48.756;9.246;2023-06-10T04:30:50;7.07;;;6.40;;
55647;SDS011;45266;48.756;9.246;2023-06-10T04:31:52;7.28;;;6.38;;
55647;SDS011;45266;48.756;9.246;2023-06-10T04:32:54;6.78;;;6.15;;
55647;SDS011;45266;48.756;9.246;2023-06-10T04:33:56;7.47;;;6.78;;
55647;SDS011;45266;48.756;9.246;2023-06-10T04:34:59;7.30;;;6.20;;
55647;SDS011;45266;48.756;9.246;2023-06-10T04:36:01;7.10;;;6.50;;
55647;SDS011;45266;48.756;9.246;2023-06-10T04:37:03;7.22;;;6.63;;
55647;SDS011;45266;48.756;9.246;2023-06-10T04:38:06;6.60;;;6.00;;
55647;SDS011;45266;48.756;9.246;2023-06-10T04:39:08;8.02;;;6.45;;
55647;SDS011;45266;48.756;9.246;2023-06-10T04:40:09;7.60;;;6.90;;
55647;SDS011;45266;48.756;9.246;2023-06-10T04:41:12;7.43;;;6.68;;
55647;SDS011;45266;48.756;9.246;2023-06-10T04:42:14;7.85;;;6.63;;
55647;SDS011;45266;48.756;9.246;2023-06-10T04:43:16;7.50;;;6.80;;
55647;SDS011;45266;48.756;9.246;2023-06-10T04:44:18;9.02;;;6.70;;
55647;SDS011;45266;48.756;9.246;2023-06-10T04:45:20;6.43;;;5.82;;
55647;SDS011;45266;48.756;9.246;2023-06-10T04:46:22;7.32;;;6.63;;
55647;SDS011;45266;48.756;9.246;2023-06-10T04:47:25;8.25;;;7.25;;
55647;SDS011;45266;48.756;9.246;2023-06-10T04:48:27;6.95;;;6.35;;
55647;SDS011;45266;48.756;9.246;2023-06-10T04:49:29;7.15;;;6.53;;
55647;SDS011;45266;48.756;9.246;2023-06-10T04:50:31;8.75;;;6.50;;
55647;SDS011;45266;48.756;9.246;2023-06-10T04:51:34;7.20;;;6.50;;
55647;SDS011;45266;48.756;9.246;2023-06-10T04:52:36;7.45;;;6.75;;
55647;SDS011;45266;48.756;9.246;2023-06-10T04:53:37;7.07;;;6.38;;
55647;SDS011;45266;48.756;9.246;2023-06-10T04:54:40;6.93;;;6.03;;
55647;SDS011;45266;48.756;9.246;2023-06-10T04:55:42;7.35;;;6.65;;
55647;SDS011;45266;48.756;9.246;2023-06-10T04:56:45;7.22;;;6.53;;
55647;SDS011;45266;48.756;9.246;2023-06-10T04:57:47;7.22;;;6.53;;
55647;SDS011;45266;48.756;9.246;2023-06-10T04:58:52;7.57;;;6.78;;
55647;SDS011;45266;48.756;9.246;2023-06-10T04:59:54;7.07;;;6.38;;
55647;SDS011;45266;48.756;9.246;2023-06-10T05:00:56;6.88;;;6.18;;
55647;SDS011;45266;48.756;9.246;2023-06-10T05:01:58;6.97;;;6.35;;
55647;SDS011;45266;48.756;9.246;2023-06-10T05:03:00;7.63;;;6.03;;
55647;SDS011;45266;48.756;9.246;2023-06-10T05:04:02;6.78;;;5.85;;
55647;SDS011;45266;48.756;9.246;2023-06-10T05:05:06;7.10;;;6.18;;
55647;SDS011;45266;48.756;9.246;2023-06-10T05:06:08;7.10;;;6.40;;
55647;SDS011;45266;48.756;9.246;2023-06-10T05:07:11;7.57;;;6.60;;
55647;SDS011;45266;48.756;9.246;2023-06-10T05:08:13;6.97;;;6.28;;
55647;SDS011;45266;48.756;9.246;2023-06-10T05:09:15;7.38;;;6.65;;
55647;SDS011;45266;48.756;9.246;2023-06-10T05:10:17;7.00;;;6.40;;
55647;SDS011;45266;48.756;9.246;2023-06-10T05:11:19;7.22;;;6.53;;
55647;SDS011;45266;48.756;9.246;2023-06-10T05:12:21;9.32;;;7.10;;
55647;SDS011;45266;48.756;9.246;2023-06-10T05:13:23;7.43;;;6.03;;
55647;SDS011;45266;48.756;9.246;2023-06-10T05:14:25;7.13;;;6.43;;
55647;SDS011;45266;48.756;9.246;2023-06-10T05:15:27;7.05;;;6.35;;
55647;SDS011;45266;48.756;9.246;2023-06-10T05:16:29;6.95;;;6.28;;
55647;SDS011;45266;48.756;9.246;2023-06-10T05:17:31;7.30;;;6.55;;
55647;SDS011;45266;48.756;9.246;2023-06-10T05:18:33;6.15;;;5.60;;
55647;SDS011;45266;48.756;9.246;2023-06-10T05:19:36;6.57;;;5.97;;
55647;SDS011;45266;48.756;9.246;2023-06-10T05:20:38;6.65;;;5.95;;
55647;SDS011;45266;48.756;9.246;2023-06-10T05:21:40;6.13;;;5.63;;
55647;SDS011;45266;48.756;9.246;2023-06-10T05:22:42;6.05;;;5.45;;
55647;SDS011;45266;48.756;9.246;2023-06-10T05:23:44;6.22;;;5.63;;
55647;SDS011;45266;48.756;9.246;2023-06-10T05:24:46;6.30;;;5.70;;
55647;SDS011;45266;48.756;9.246;2023-06-10T05:25:48;6.70;;;6.00;;
55647;SDS011;45266;48.756;9.246;2023-06-10T05:26:50;6.93;;;6.22;;
55647;SDS011;45266;48.756;9.246;2023-06-10T05:27:51;7.13;;;6.05;;
55647;SDS011;45266;48.756;9.246;2023-06-10T05:28:53;7.18;;;5.75;;
55647;SDS011;45266;48.756;9.246;2023-06-10T05:29:55;6.40;;;5.82;;
55647;SDS011;45266;48.756;9.246;2023-06-10T05:30:57;6.18;;;5.13;;
55647;SDS011;45266;48.756;9.246;2023-06-10T05:31:59;6.28;;;5.68;;
55647;SDS011;45266;48.756;9.246;2023-06-10T05:33:04;6.63;;;5.57;;
55647;SDS011;45266;48.756;9.246;2023-06-10T05:34:06;6.13;;;5.53;;
55647;SDS011;45266;48.756;9.246;2023-06-10T05:35:08;6.40;;;5.68;;
55647;SDS011;45266;48.756;9.246;2023-06-10T05:36:10;6.90;;;6.30;;
55647;SDS011;45266;48.756;9.246;2023-06-10T05:37:12;6.45;;;5.85;;
55647;SDS011;45266;48.756;9.246;2023-06-10T05:38:15;6.50;;;5.90;;
55647;SDS011;45266;48.756;9.246;2023-06-10T05:39:17;6.72;;;6.13;;
55647;SDS011;45266;48.756;9.246;2023-06-10T05:40:19;7.13;;;6.43;;
55647;SDS011;45266;48.756;9.246;2023-06-10T05:41:20;7.10;;;6.22;;
55647;SDS011;45266;48.756;9.246;2023-06-10T05:42:23;9.70;;;7.15;;
55647;SDS011;45266;48.756;9.246;2023-06-10T05:43:25;8.63;;;7.25;;
55647;SDS011;45266;48.756;9.246;2023-06-10T05:44:27;7.72;;;7.03;;
55647;SDS011;45266;48.756;9.246;2023-06-10T05:45:28;8.38;;;7.53;;
55647;SDS011;45266;48.756;9.246;2023-06-10T05:46:30;8.30;;;7.50;;
55647;SDS011;45266;48.756;9.246;2023-06-10T05:47:32;8.35;;;7.55;;
55647;SDS011;45266;48.756;9.246;2023-06-10T05:48:34;7.88;;;7.15;;
55647;SDS011;45266;48.756;9.246;2023-06-10T05:49:36;8.25;;;7.50;;
55647;SDS011;45266;48.756;9.246;2023-06-10T05:50:39;9.25;;;8.35;;
55647;SDS011;45266;48.756;9.246;2023-06-10T05:51:43;9.75;;;7.65;;
55647;SDS011;45266;48.756;9.246;2023-06-10T05:52:45;8.68;;;7.45;;
55647;SDS011;45266;48.756;9.246;2023-06-10T05:53:47;8.23;;;6.97;;
55647;SDS011;45266;48.756;9.246;2023-06-10T05:54:50;8.77;;;7.88;;
55647;SDS011;45266;48.756;9.246;2023-06-10T05:55:51;10.15;;;8.05;;
55647;SDS011;45266;48.756;9.246;2023-06-10T05:56:54;8.48;;;7.40;;
55647;SDS011;45266;48.756;9.246;2023-06-10T05:58:00;8.40;;;7.57;;
55647;SDS011;45266;48.756;9.246;2023-06-10T05:59:02;9.23;;;7.53;;
55647;SDS011;45266;48.756;9.246;2023-06-10T06:00:04;7.75;;;7.05;;
55647;SDS011;45266;48.756;9.246;2023-06-10T06:01:06;8.70;;;7.80;;
55647;SDS011;45266;48.756;9.246;2023-06-10T06:02:08;7.68;;;6.97;;
55647;SDS011;45266;48.756;9.246;2023-06-10T06:03:10;8.88;;;7.13;;
55647;SDS011;45266;48.756;9.246;2023-06-10T06:04:13;9.05;;;8.15;;
55647;SDS011;45266;48.756;9.246;2023-06-10T06:05:15;8.23;;;7.43;;
55647;SDS011;45266;48.756;9.246;2023-06-10T06:06:17;7.95;;;7.05;;
55647;SDS011;45266;48.756;9.246;2023-06-10T06:07:21;8.45;;;7.65;;
55647;SDS011;45266;48.756;9.246;2023-06-10T06:08:23;7.85;;;7.07;;
55647;SDS011;45266;48.756;9.246;2023-06-10T06:09:25;8.07;;;7.32;;
55647;SDS011;45266;48.756;9.246;2023-06-10T06:10:27;7.40;;;6.70;;
55647;SDS011;45266;48.756;9.246;2023-06-10T06:11:29;8.90;;;7.28;;
55647;SDS011;45266;48.756;9.246;2023-06-10T06:12:31;7.68;;;6.97;;
55647;SDS011;45266;48.756;9.246;2023-06-10T06:13:33;7.72;;;7.10;;
55647;SDS011;45266;48.756;9.246;2023-06-10T06:14:36;7.53;;;6.82;;
55647;SDS011;45266;48.756;9.246;2023-06-10T06:15:42;6.93;;;6.20;;
55647;SDS011;45266;48.756;9.246;2023-06-10T06:16:44;7.50;;;6.80;;
55647;SDS011;45266;48.756;9.246;2023-06-10T06:17:46;7.53;;;6.80;;
55647;SDS011;45266;48.756;9.246;2023-06-10T06:18:48;7.10;;;6.35;;
55647;SDS011;45266;48.756;9.246;2023-06-10T06:19:50;8.68;;;6.55;;
55647;SDS011;45266;48.756;9.246;2023-06-10T06:20:53;8.38;;;6.25;;
55647;SDS011;45266;48.756;9.246;2023-06-10T06:21:55;6.95;;;6.35;;